Time;durP1;ratioP1;P1;durP2;ratioP2;P2;SDS_P1;SDS_P2;PMS_P1;PMS_P2;Temp;Humidity;BMP_temperature;BMP_pressure;BME280_temperature;BME280_humidity;BME280_pressure;Samples;Min_cycle;Max_cycle;Signal;HPM_P1;HPM_P2
2023/05/18 05:29:37;;;;;;;5.72;1.83;;;;;;;;;;6202883;23;20035;-82
2023/05/18 05:32:04;;;;;;;7.82;2.20;;;;;;;;;;6184675;23;20495;-82
2023/05/18 06:14:25;;;;;;;10.13;3.38;;;;;;;;;;6158489;22;20021;-83
2023/05/18 06:26:58;;;;;;;8.23;3.15;;;;;;;;;;6119783;23;20033;-82
2023/05/18 06:39:29;;;;;;;9.55;3.35;;;;;;;;;;6199577;23;20096;31
2023/05/18 07:06:30;;;;;;;10.98;3.95;;;;;;;;;;6181020;23;20674;-82
2023/05/18 07:08:56;;;;;;;8.90;3.80;;;;;;;;;;6180325;23;20005;-81
2023/05/18 07:15:01;;;;;;;;;;;;;;;;;;;;;
2023/05/18 08:19:40;;;;;;;10.43;3.70;;;;;;;;;;6211223;23;20016;-81
2023/05/18 08:22:17;;;;;;;7.22;2.70;;;;;;;;;;6204046;23;20032;-79
2023/05/18 08:38:25;;;;;;;;;;;;;;;;;;;;;
2023/05/18 08:47:43;;;;;;;9.95;3.60;;;;;;;;;;6182267;23;20460;-84
2023/05/18 08:55:35;;;;;;;7.55;3.03;;;;;;;;;;6180656;23;20509;-83
2023/05/18 09:01:53;;;;;;;9.90;3.58;;;;;;;;;;6084238;22;20036;-84
2023/05/18 16:31:21;;;;;;;8.13;2.20;;;;;;;;;;6177057;23;20112;-81
2023/05/18 16:33:56;;;;;;;6.40;1.52;;;;;;;;;;6181324;23;20113;-83
2023/05/18 16:36:25;;;;;;;7.50;2.53;;;;;;;;;;6155687;23;20096;-83
2023/05/18 16:38:54;;;;;;;5.82;2.60;;;;;;;;;;6154720;23;20016;-83
2023/05/18 16:41:38;;;;;;;9.07;2.75;;;;;;;;;;6182063;23;20009;-83
2023/05/18 16:53:42;;;;;;;;;;;;;;;;;;;;;
2023/05/18 17:38:49;;;;;;;5.50;2.35;;;;;;;;;;6003004;23;20483;-81
2023/05/18 17:41:24;;;;;;;5.75;2.30;;;;;;;;;;6031448;23;20023;-80
2023/05/18 17:43:51;;;;;;;5.93;2.35;;;;;;;;;;6134738;23;20008;-81
2023/05/18 17:46:22;;;;;;;7.55;2.67;;;;;;;;;;6154522;23;20016;-80
2023/05/18 17:48:48;;;;;;;7.87;2.83;;;;;;;;;;6154401;23;20421;-80
2023/05/18 17:51:14;;;;;;;8.23;2.88;;;;;;;;;;6180374;23;20731;-80
2023/05/18 17:53:41;;;;;;;11.00;3.47;;;;;;;;;;6154366;23;20543;-81
2023/05/18 17:56:08;;;;;;;6.88;2.95;;;;;;;;;;6153855;23;20016;-81
2023/05/18 17:58:37;;;;;;;11.90;3.55;;;;;;;;;;6180841;23;20021;-80
2023/05/18 18:01:04;;;;;;;11.52;6.05;;;;;;;;;;6153765;23;20017;-80
2023/05/18 18:03:31;;;;;;;9.98;5.45;;;;;;;;;;6181491;23;20013;-80
2023/05/18 18:05:57;;;;;;;10.90;4.55;;;;;;;;;;6181257;23;20012;-81
2023/05/18 18:08:23;;;;;;;9.48;5.10;;;;;;;;;;6180679;23;20332;-81
2023/05/18 18:10:51;;;;;;;8.98;4.13;;;;;;;;;;6180768;23;20742;-81
2023/05/18 18:13:17;;;;;;;12.80;4.28;;;;;;;;;;6154341;23;20013;-81
2023/05/18 18:15:43;;;;;;;10.32;4.45;;;;;;;;;;6154205;23;20009;-81
2023/05/18 18:18:09;;;;;;;7.10;3.92;;;;;;;;;;6181013;23;20439;-81
2023/05/18 18:20:35;;;;;;;7.82;3.63;;;;;;;;;;6181090;23;20013;-81
2023/05/18 18:23:02;;;;;;;7.65;3.45;;;;;;;;;;6179829;23;20024;-81
2023/05/18 18:25:31;;;;;;;6.68;3.60;;;;;;;;;;6154329;23;20129;-80
2023/05/18 18:27:57;;;;;;;8.88;3.80;;;;;;;;;;6153881;23;20079;-80
2023/05/18 18:30:23;;;;;;;9.13;4.43;;;;;;;;;;6181303;23;20409;-80
2023/05/18 18:32:49;;;;;;;8.35;4.90;;;;;;;;;;6153905;23;20672;-80
2023/05/18 18:35:15;;;;;;;11.13;4.40;;;;;;;;;;6154244;23;20083;-80
2023/05/18 18:37:44;;;;;;;8.35;4.15;;;;;;;;;;6180733;23;20063;-81
2023/05/18 18:40:10;;;;;;;7.07;3.95;;;;;;;;;;6153929;23;20024;-80
2023/05/18 18:42:36;;;;;;;10.10;5.15;;;;;;;;;;6152928;23;20013;-81
2023/05/18 18:45:03;;;;;;;10.00;6.10;;;;;;;;;;6154869;23;20016;-80
2023/05/18 19:15:27;;;;;;;9.30;4.65;;;;;;;;;;6203091;23;20051;-79
2023/05/18 19:17:53;;;;;;;7.28;4.28;;;;;;;;;;6171118;23;20013;-80
2023/05/18 19:30:30;;;;;;;12.38;6.13;;;;;;;;;;6206892;23;20028;-83
2023/05/18 19:33:01;;;;;;;14.35;6.53;;;;;;;;;;6210704;23;20016;-80
2023/05/18 19:35:53;;;;;;;;;;;;;;;;;;;;;
2023/05/18 19:40:50;;;;;;;7.80;3.90;;;;;;;;;;6210059;23;20486;-80
